Time;durP1;ratioP1;P1;durP2;ratioP2;P2;SDS_P1;SDS_P2;PMS_P1;PMS_P2;Temp;Humidity;BMP_temperature;BMP_pressure;BME280_temperature;BME280_humidity;BME280_pressure;Samples;Min_cycle;Max_cycle;Signal;HPM_P1;HPM_P2
2023/03/27 00:01:11;;;;;;;7.15;0.75;;;;;;;;;;6216087;23;20050;-45
2023/03/27 00:03:41;;;;;;;4.35;0.73;;;;;;;;;;6217340;23;20474;-48
2023/03/27 00:06:15;;;;;;;8.35;0.90;;;;;;;;;;6222026;23;20414;-46
2023/03/27 00:08:43;;;;;;;5.50;0.73;;;;;;;;;;6222918;23;20327;-45
2023/03/27 00:11:12;;;;;;;5.35;0.80;;;;;;;;;;6211048;23;20442;-46
2023/03/27 00:13:39;;;;;;;3.80;0.80;;;;;;;;;;6225473;23;20031;-48
2023/03/27 00:16:16;;;;;;;5.05;0.60;;;;;;;;;;6216151;23;20024;-51
2023/03/27 00:18:45;;;;;;;6.03;0.73;;;;;;;;;;6218961;23;20425;-49
2023/03/27 00:21:13;;;;;;;4.70;0.63;;;;;;;;;;6221587;23;20020;-46
2023/03/27 00:23:41;;;;;;;7.57;0.90;;;;;;;;;;6223140;23;20401;-46
2023/03/27 00:26:09;;;;;;;4.30;0.60;;;;;;;;;;6220902;23;20299;-48
2023/03/27 00:28:37;;;;;;;4.55;0.80;;;;;;;;;;6227141;23;20494;-50
2023/03/27 00:31:09;;;;;;;3.40;0.50;;;;;;;;;;6217058;23;20071;-45
2023/03/27 00:33:37;;;;;;;5.10;0.60;;;;;;;;;;6219251;23;20012;-46
2023/03/27 00:36:07;;;;;;;6.93;0.68;;;;;;;;;;6217310;23;20126;-48
2023/03/27 00:38:35;;;;;;;5.55;0.68;;;;;;;;;;6223397;23;20027;-48
2023/03/27 00:41:03;;;;;;;9.32;0.82;;;;;;;;;;6215530;23;20089;-48
2023/03/27 00:43:33;;;;;;;6.60;0.82;;;;;;;;;;6223234;23;20020;-47
2023/03/27 00:46:02;;;;;;;4.27;0.67;;;;;;;;;;6222633;23;20036;-46
2023/03/27 00:48:31;;;;;;;4.80;0.40;;;;;;;;;;6191664;23;20465;-45
2023/03/27 00:51:03;;;;;;;10.05;0.85;;;;;;;;;;6221947;23;20016;-49
2023/03/27 00:53:33;;;;;;;7.50;0.80;;;;;;;;;;6226273;23;20082;-45
2023/03/27 00:56:02;;;;;;;8.43;0.95;;;;;;;;;;6214528;23;20008;-48
2023/03/27 00:58:31;;;;;;;5.07;0.67;;;;;;;;;;6218635;23;20019;-45
2023/03/27 01:00:59;;;;;;;4.88;0.75;;;;;;;;;;6217393;23;20055;-48
2023/03/27 01:03:29;;;;;;;5.07;1.00;;;;;;;;;;6216087;23;20103;-47
2023/03/27 01:05:58;;;;;;;7.20;0.82;;;;;;;;;;6221382;23;20058;-46
2023/03/27 01:08:26;;;;;;;4.70;0.80;;;;;;;;;;6220142;23;20016;-46
2023/03/27 01:10:58;;;;;;;5.60;0.67;;;;;;;;;;6216833;23;20039;-46
2023/03/27 01:13:33;;;;;;;6.53;0.68;;;;;;;;;;6213282;23;20486;-46
2023/03/27 01:16:05;;;;;;;3.97;0.60;;;;;;;;;;6224297;23;20371;-46
2023/03/27 01:18:39;;;;;;;5.55;0.60;;;;;;;;;;6204426;23;20058;-46
2023/03/27 01:21:22;;;;;;;5.57;0.77;;;;;;;;;;6221863;23;20454;-47
2023/03/27 01:24:03;;;;;;;5.10;0.67;;;;;;;;;;6218457;23;20008;-47
2023/03/27 01:26:45;;;;;;;6.53;1.15;;;;;;;;;;6221012;23;20051;-46
2023/03/27 01:29:15;;;;;;;6.07;0.80;;;;;;;;;;6216684;23;20369;-49
2023/03/27 01:31:54;;;;;;;5.75;0.82;;;;;;;;;;6220580;23;20054;-47
2023/03/27 01:34:33;;;;;;;5.47;1.00;;;;;;;;;;6222436;23;20103;-48
2023/03/27 01:37:10;;;;;;;7.90;0.80;;;;;;;;;;6220850;23;20091;-51
2023/03/27 01:39:48;;;;;;;6.00;0.50;;;;;;;;;;6216706;23;20458;-46
2023/03/27 01:42:19;;;;;;;5.40;0.50;;;;;;;;;;6219877;23;20439;-47
2023/03/27 01:44:48;;;;;;;3.80;0.60;;;;;;;;;;6212658;23;20016;-50
2023/03/27 01:47:19;;;;;;;5.05;0.80;;;;;;;;;;6221714;23;20020;-48
2023/03/27 01:49:51;;;;;;;3.73;0.57;;;;;;;;;;6218044;23;20016;-47
2023/03/27 01:52:22;;;;;;;8.55;1.13;;;;;;;;;;6221030;23;20107;-48
2023/03/27 01:54:57;;;;;;;8.18;0.70;;;;;;;;;;6216568;23;20051;-47
2023/03/27 01:57:26;;;;;;;3.70;0.88;;;;;;;;;;6219702;23;20166;-47
2023/03/27 01:59:55;;;;;;;4.15;0.80;;;;;;;;;;6203196;23;20059;-47
2023/03/27 02:02:45;;;;;;;5.77;1.03;;;;;;;;;;6214148;23;20016;-49
2023/03/27 02:05:15;;;;;;;5.65;1.33;;;;;;;;;;6221178;22;20442;-46
2023/03/27 02:07:46;;;;;;;6.95;0.90;;;;;;;;;;6210312;23;20023;-46
2023/03/27 02:10:17;;;;;;;5.28;0.93;;;;;;;;;;6206357;23;20087;-47
2023/03/27 02:12:46;;;;;;;8.38;1.08;;;;;;;;;;6222136;23;20012;-46
2023/03/27 02:15:15;;;;;;;4.00;1.00;;;;;;;;;;6222046;23;20066;-47
2023/03/27 02:17:55;;;;;;;6.95;0.70;;;;;;;;;;6217246;23;20050;-46
2023/03/27 02:20:23;;;;;;;9.73;1.23;;;;;;;;;;6221438;23;20051;-47
2023/03/27 02:22:54;;;;;;;6.88;0.90;;;;;;;;;;6220337;23;20359;-48
2023/03/27 02:25:27;;;;;;;5.65;1.15;;;;;;;;;;6216178;23;20050;-46
2023/03/27 02:28:05;;;;;;;12.40;0.83;;;;;;;;;;6220363;22;20031;-47
2023/03/27 02:30:36;;;;;;;6.75;1.10;;;;;;;;;;6209613;23;20653;-45
2023/03/27 02:33:07;;;;;;;5.25;1.00;;;;;;;;;;6217860;23;20016;-46
2023/03/27 02:35:37;;;;;;;11.70;1.25;;;;;;;;;;6212440;23;20339;-46
2023/03/27 02:38:08;;;;;;;4.75;0.93;;;;;;;;;;6210145;23;20027;-47
2023/03/27 02:40:43;;;;;;;8.80;0.97;;;;;;;;;;6214908;23;20564;-46
2023/03/27 02:43:15;;;;;;;5.82;0.70;;;;;;;;;;6220613;23;20016;-47
2023/03/27 02:45:47;;;;;;;5.35;1.10;;;;;;;;;;6218412;23;20015;-45
2023/03/27 02:48:18;;;;;;;7.18;1.15;;;;;;;;;;6210634;23;20012;-46
2023/03/27 02:50:48;;;;;;;4.25;0.93;;;;;;;;;;6222437;23;20170;-47
2023/03/27 02:53:18;;;;;;;10.93;1.07;;;;;;;;;;6180160;23;20091;-46
2023/03/27 02:55:49;;;;;;;4.70;0.93;;;;;;;;;;6220602;23;20012;-46
2023/03/27 02:58:19;;;;;;;4.72;1.02;;;;;;;;;;6217102;22;20066;-47
2023/03/27 03:00:49;;;;;;;4.95;1.00;;;;;;;;;;6219167;23;20116;-46
2023/03/27 03:03:20;;;;;;;5.38;1.02;;;;;;;;;;6221533;23;20012;-46
2023/03/27 03:05:49;;;;;;;10.10;1.00;;;;;;;;;;6215385;23;20500;-47
2023/03/27 03:08:20;;;;;;;6.15;0.98;;;;;;;;;;6221215;23;20016;-47
2023/03/27 03:10:51;;;;;;;5.45;1.10;;;;;;;;;;6206222;23;20043;-45
2023/03/27 03:13:19;;;;;;;7.10;0.98;;;;;;;;;;6219465;23;20022;-45
2023/03/27 03:15:46;;;;;;;7.70;0.88;;;;;;;;;;6220795;23;20757;-48
2023/03/27 03:18:17;;;;;;;4.50;0.60;;;;;;;;;;6214335;23;20024;-47
2023/03/27 03:20:44;;;;;;;3.08;0.40;;;;;;;;;;6217473;23;20094;-46
2023/03/27 03:23:12;;;;;;;4.30;0.80;;;;;;;;;;6206842;23;20051;-46
2023/03/27 03:25:40;;;;;;;5.25;0.90;;;;;;;;;;6208930;23;20012;-49
2023/03/27 03:28:09;;;;;;;5.70;0.82;;;;;;;;;;6220465;23;20020;-47
2023/03/27 03:30:40;;;;;;;6.83;0.90;;;;;;;;;;6217473;23;20016;-47
2023/03/27 03:33:08;;;;;;;4.43;0.70;;;;;;;;;;6216199;23;20070;-46
2023/03/27 03:35:37;;;;;;;8.00;1.10;;;;;;;;;;6215327;23;20016;-48
2023/03/27 03:38:07;;;;;;;5.65;0.88;;;;;;;;;;6220012;23;20013;-46
2023/03/27 03:40:36;;;;;;;5.75;0.93;;;;;;;;;;6205982;23;20016;-48
2023/03/27 03:43:03;;;;;;;8.43;1.47;;;;;;;;;;6221455;23;20034;-49
2023/03/27 03:45:32;;;;;;;9.27;1.10;;;;;;;;;;6214373;23;20047;-47
2023/03/27 03:48:00;;;;;;;5.13;0.90;;;;;;;;;;6215329;23;20103;-49
2023/03/27 03:50:27;;;;;;;3.90;0.85;;;;;;;;;;6219211;23;20020;-49
2023/03/27 03:52:55;;;;;;;4.80;1.08;;;;;;;;;;6216423;23;20019;-49
2023/03/27 03:55:24;;;;;;;4.90;0.90;;;;;;;;;;6216183;23;20099;-51
2023/03/27 03:57:52;;;;;;;6.35;1.00;;;;;;;;;;6223799;23;20044;-47
2023/03/27 04:00:21;;;;;;;5.65;0.88;;;;;;;;;;6220184;23;20131;-50
2023/03/27 04:02:52;;;;;;;4.63;0.95;;;;;;;;;;6220502;23;20016;-47
2023/03/27 04:05:19;;;;;;;8.07;1.23;;;;;;;;;;6212326;23;20016;-50
2023/03/27 04:07:48;;;;;;;7.00;0.93;;;;;;;;;;6223216;23;20446;-45
2023/03/27 04:10:16;;;;;;;7.18;1.00;;;;;;;;;;6221318;23;20017;-48
2023/03/27 04:12:46;;;;;;;4.70;1.02;;;;;;;;;;6221626;23;20028;-46
2023/03/27 04:15:15;;;;;;;7.95;1.35;;;;;;;;;;6224178;23;20091;-45
2023/03/27 04:17:43;;;;;;;7.00;1.15;;;;;;;;;;6217939;23;20723;-49
2023/03/27 04:20:13;;;;;;;7.57;0.90;;;;;;;;;;6221270;23;20434;-46
2023/03/27 04:22:45;;;;;;;14.98;1.52;;;;;;;;;;6216474;23;20398;-47
2023/03/27 04:25:13;;;;;;;5.03;1.00;;;;;;;;;;6212670;23;20020;-46
2023/03/27 04:27:42;;;;;;;7.32;0.80;;;;;;;;;;6216686;23;20047;-48
2023/03/27 04:30:12;;;;;;;4.05;0.70;;;;;;;;;;6219966;23;20070;-47
2023/03/27 04:32:41;;;;;;;7.83;0.83;;;;;;;;;;6220995;23;20043;-49
2023/03/27 04:35:10;;;;;;;5.28;0.77;;;;;;;;;;6218480;23;20020;-46
2023/03/27 04:37:41;;;;;;;8.38;0.98;;;;;;;;;;6222103;23;20369;-46
2023/03/27 04:40:10;;;;;;;6.18;0.90;;;;;;;;;;6214872;23;20654;-46
2023/03/27 04:42:41;;;;;;;6.70;1.15;;;;;;;;;;6222527;23;20095;-46
2023/03/27 04:45:09;;;;;;;4.17;0.60;;;;;;;;;;6214586;23;20046;-47
2023/03/27 04:47:37;;;;;;;5.05;0.82;;;;;;;;;;6218330;23;20020;-46
2023/03/27 04:50:07;;;;;;;8.35;0.70;;;;;;;;;;6222469;23;20164;-46
2023/03/27 04:52:35;;;;;;;4.45;0.65;;;;;;;;;;6220237;23;20055;-48
2023/03/27 04:55:06;;;;;;;3.47;0.50;;;;;;;;;;6213627;23;20091;-46
2023/03/27 04:57:34;;;;;;;3.70;0.53;;;;;;;;;;6219324;23;20012;-49
2023/03/27 05:00:06;;;;;;;4.20;0.63;;;;;;;;;;6215396;23;20474;-46
2023/03/27 05:02:38;;;;;;;7.03;0.55;;;;;;;;;;6220458;22;20100;-46
2023/03/27 05:05:06;;;;;;;4.65;0.77;;;;;;;;;;6219626;23;20016;-49
2023/03/27 05:07:33;;;;;;;5.85;0.88;;;;;;;;;;6219036;23;20339;-47
2023/03/27 05:10:02;;;;;;;3.77;0.67;;;;;;;;;;6216579;23;20020;-48
2023/03/27 05:12:31;;;;;;;3.60;0.68;;;;;;;;;;6221528;23;20024;-46
2023/03/27 05:15:02;;;;;;;6.30;1.05;;;;;;;;;;6217871;22;20012;-48
2023/03/27 05:17:31;;;;;;;4.97;0.82;;;;;;;;;;6220604;23;20024;-48
2023/03/27 05:19:59;;;;;;;4.30;0.50;;;;;;;;;;6221045;23;20709;-47
2023/03/27 05:22:27;;;;;;;6.17;0.93;;;;;;;;;;6222833;23;20020;-47
2023/03/27 05:24:55;;;;;;;5.97;0.98;;;;;;;;;;6214909;23;20070;-47
2023/03/27 05:27:22;;;;;;;5.90;0.80;;;;;;;;;;6221948;23;20426;-46
2023/03/27 05:29:51;;;;;;;4.75;0.82;;;;;;;;;;6213903;23;20016;-47
2023/03/27 05:32:20;;;;;;;4.43;0.70;;;;;;;;;;6221500;23;20016;-49
2023/03/27 05:34:49;;;;;;;4.30;0.73;;;;;;;;;;6206969;22;20012;-49
2023/03/27 05:37:18;;;;;;;6.80;0.93;;;;;;;;;;6220855;23;20016;-48
2023/03/27 05:39:46;;;;;;;6.15;0.85;;;;;;;;;;6216872;23;20050;-46
2023/03/27 05:42:15;;;;;;;8.40;1.50;;;;;;;;;;6219876;23;20088;-47
2023/03/27 05:44:44;;;;;;;6.50;1.08;;;;;;;;;;6226030;23;20047;-47
2023/03/27 05:47:14;;;;;;;9.33;1.60;;;;;;;;;;6217690;23;20048;-47
2023/03/27 05:49:41;;;;;;;5.65;1.05;;;;;;;;;;6219468;23;20071;-48
2023/03/27 05:52:09;;;;;;;8.48;1.20;;;;;;;;;;6213927;23;20019;-48
2023/03/27 05:54:37;;;;;;;6.28;1.10;;;;;;;;;;6218532;23;20361;-46
2023/03/27 05:57:04;;;;;;;7.85;1.35;;;;;;;;;;6215576;23;20043;-47
2023/03/27 05:59:32;;;;;;;6.93;1.37;;;;;;;;;;6216941;23;20027;-47
2023/03/27 06:01:59;;;;;;;7.82;1.23;;;;;;;;;;6218823;23;20024;-49
2023/03/27 06:04:29;;;;;;;4.45;1.35;;;;;;;;;;6210905;23;20048;-46
2023/03/27 06:06:57;;;;;;;5.32;1.02;;;;;;;;;;6220600;23;20016;-46
2023/03/27 06:09:25;;;;;;;7.93;1.10;;;;;;;;;;6216143;23;20024;-49
2023/03/27 06:11:52;;;;;;;6.30;1.43;;;;;;;;;;6215904;23;20027;-48
2023/03/27 06:14:20;;;;;;;8.95;1.65;;;;;;;;;;6215217;23;20016;-48
2023/03/27 06:16:48;;;;;;;5.55;1.77;;;;;;;;;;6217729;23;20040;-46
2023/03/27 06:19:16;;;;;;;8.85;1.33;;;;;;;;;;6224187;23;20022;-47
2023/03/27 06:21:45;;;;;;;7.15;1.80;;;;;;;;;;6215428;23;20020;-46
2023/03/27 06:24:12;;;;;;;10.73;1.87;;;;;;;;;;6219349;23;20031;-47
2023/03/27 06:26:40;;;;;;;6.32;1.13;;;;;;;;;;6216294;23;20431;-46
2023/03/27 06:29:08;;;;;;;8.02;1.33;;;;;;;;;;6221098;23;20702;-47
2023/03/27 06:31:37;;;;;;;7.88;1.90;;;;;;;;;;6217536;23;20043;-46
2023/03/27 06:34:07;;;;;;;10.18;1.60;;;;;;;;;;6222423;23;20020;-45
2023/03/27 06:36:34;;;;;;;9.20;1.40;;;;;;;;;;6213507;23;20091;-47
2023/03/27 06:39:04;;;;;;;8.80;1.70;;;;;;;;;;6220038;23;20039;-48
2023/03/27 06:41:31;;;;;;;8.88;2.03;;;;;;;;;;6219477;23;20027;-50
2023/03/27 06:43:59;;;;;;;9.00;1.45;;;;;;;;;;6215042;23;20477;-45
2023/03/27 06:46:27;;;;;;;8.38;1.88;;;;;;;;;;6211161;23;20027;-47
2023/03/27 06:49:11;;;;;;;8.00;1.63;;;;;;;;;;6215878;23;20036;-46
2023/03/27 06:51:39;;;;;;;5.10;1.20;;;;;;;;;;6218782;23;20096;-48
2023/03/27 06:54:08;;;;;;;8.18;1.10;;;;;;;;;;6211043;23;20020;-46
2023/03/27 06:56:37;;;;;;;8.57;1.15;;;;;;;;;;6215838;23;20054;-47
2023/03/27 06:59:05;;;;;;;6.93;1.48;;;;;;;;;;6222303;22;20070;-46
2023/03/27 07:01:33;;;;;;;9.10;1.63;;;;;;;;;;6211292;22;20023;-46
2023/03/27 07:04:01;;;;;;;11.35;1.90;;;;;;;;;;6222325;23;20500;-47
2023/03/27 07:06:29;;;;;;;5.78;1.50;;;;;;;;;;6217039;23;20024;-48
2023/03/27 07:08:57;;;;;;;8.57;1.70;;;;;;;;;;6214462;23;20103;-47
2023/03/27 07:11:26;;;;;;;8.88;2.25;;;;;;;;;;6220823;23;20474;-46
2023/03/27 07:13:57;;;;;;;9.83;1.60;;;;;;;;;;6215440;23;20464;-46
2023/03/27 07:16:24;;;;;;;7.82;1.85;;;;;;;;;;6217000;23;20120;-45
2023/03/27 07:18:52;;;;;;;8.98;1.20;;;;;;;;;;6225369;23;20016;-49
2023/03/27 07:21:20;;;;;;;6.45;1.55;;;;;;;;;;6222951;23;20016;-47
2023/03/27 07:23:48;;;;;;;8.10;2.03;;;;;;;;;;6218908;23;20440;-47
2023/03/27 07:26:15;;;;;;;7.17;1.30;;;;;;;;;;6221293;23;20350;-49
2023/03/27 07:28:45;;;;;;;12.63;3.28;;;;;;;;;;6221778;23;20039;-49
2023/03/27 07:31:15;;;;;;;6.30;1.27;;;;;;;;;;6220581;23;20087;-47
2023/03/27 07:33:59;;;;;;;6.78;0.63;;;;;;;;;;6220061;23;20012;-48
2023/03/27 07:36:27;;;;;;;3.72;0.68;;;;;;;;;;6219447;22;20024;-47
2023/03/27 07:38:55;;;;;;;5.27;0.60;;;;;;;;;;6219946;23;20016;-47
2023/03/27 07:41:23;;;;;;;5.55;0.60;;;;;;;;;;6216809;23;20091;-49
2023/03/27 07:43:52;;;;;;;4.28;0.60;;;;;;;;;;6216811;23;20020;-47
2023/03/27 07:46:21;;;;;;;7.45;0.60;;;;;;;;;;6211619;23;20016;-46
2023/03/27 07:48:49;;;;;;;8.23;0.80;;;;;;;;;;6218621;23;20019;-49
2023/03/27 07:51:17;;;;;;;7.70;1.00;;;;;;;;;;6220149;23;20785;-48
2023/03/27 07:53:45;;;;;;;5.90;0.65;;;;;;;;;;6216840;23;20095;-48
2023/03/27 07:56:13;;;;;;;2.92;0.57;;;;;;;;;;6221500;23;20039;-47
2023/03/27 07:58:41;;;;;;;5.50;0.93;;;;;;;;;;6216017;23;20434;-47
2023/03/27 08:01:10;;;;;;;4.65;1.00;;;;;;;;;;6220490;23;20253;-46
2023/03/27 08:03:38;;;;;;;3.07;0.60;;;;;;;;;;6217372;23;20514;-48
2023/03/27 08:06:06;;;;;;;6.72;0.63;;;;;;;;;;6219643;23;20041;-48
2023/03/27 08:08:34;;;;;;;4.72;0.70;;;;;;;;;;6213958;23;20059;-45
2023/03/27 08:11:02;;;;;;;5.82;0.57;;;;;;;;;;6217723;23;20498;-46
2023/03/27 08:13:30;;;;;;;3.65;0.40;;;;;;;;;;6221711;23;20012;-48
2023/03/27 08:16:05;;;;;;;5.13;0.60;;;;;;;;;;6206747;23;20024;-46
2023/03/27 08:18:35;;;;;;;7.53;0.73;;;;;;;;;;6216363;23;20353;-47
2023/03/27 08:21:03;;;;;;;5.22;0.70;;;;;;;;;;6218235;23;20016;-50
2023/03/27 08:23:32;;;;;;;2.53;0.40;;;;;;;;;;6211600;23;20020;-46
2023/03/27 08:26:00;;;;;;;8.30;0.90;;;;;;;;;;6215996;23;20524;-49
2023/03/27 08:28:28;;;;;;;5.00;1.00;;;;;;;;;;6208556;23;20043;-47
2023/03/27 08:30:56;;;;;;;4.72;0.75;;;;;;;;;;6185962;23;20023;-47
2023/03/27 08:33:29;;;;;;;6.57;0.80;;;;;;;;;;6192161;23;20366;-52
2023/03/27 08:35:58;;;;;;;4.20;0.50;;;;;;;;;;6210988;23;20058;-48
2023/03/27 08:38:28;;;;;;;5.43;0.63;;;;;;;;;;6222943;23;20534;-48
2023/03/27 08:40:57;;;;;;;5.50;0.57;;;;;;;;;;6208366;23;20662;-48
2023/03/27 08:43:27;;;;;;;2.72;0.50;;;;;;;;;;6216445;22;20026;-50
2023/03/27 08:45:56;;;;;;;3.80;0.60;;;;;;;;;;6216931;23;20051;-49
2023/03/27 08:48:26;;;;;;;5.45;0.73;;;;;;;;;;6224196;23;20111;-47
2023/03/27 08:50:56;;;;;;;5.03;0.57;;;;;;;;;;6219216;23;20039;-48
2023/03/27 08:53:31;;;;;;;6.33;2.17;;;;;;;;;;6213318;23;20290;-47
2023/03/27 08:55:59;;;;;;;6.90;0.75;;;;;;;;;;6199703;22;20024;-46
2023/03/27 08:58:27;;;;;;;5.25;0.77;;;;;;;;;;6205219;23;20027;-49
2023/03/27 09:00:57;;;;;;;5.63;0.57;;;;;;;;;;6200819;23;20012;-50
2023/03/27 09:03:28;;;;;;;5.47;0.60;;;;;;;;;;6194695;23;20095;-47
2023/03/27 09:05:57;;;;;;;7.00;0.80;;;;;;;;;;6200948;23;20038;-49
2023/03/27 09:08:36;;;;;;;3.38;0.70;;;;;;;;;;6198461;23;20012;-49
2023/03/27 09:11:08;;;;;;;3.05;0.60;;;;;;;;;;6198082;23;20091;-46
2023/03/27 09:13:39;;;;;;;4.40;0.57;;;;;;;;;;6196144;23;20355;-48
2023/03/27 09:16:10;;;;;;;7.10;1.05;;;;;;;;;;6201546;23;20578;-48
2023/03/27 09:18:40;;;;;;;3.87;0.67;;;;;;;;;;6206200;23;20028;-50
2023/03/27 09:21:10;;;;;;;6.32;0.70;;;;;;;;;;6207713;23;20036;-49
2023/03/27 09:23:41;;;;;;;5.35;0.65;;;;;;;;;;6193030;22;20020;-47
2023/03/27 09:26:11;;;;;;;7.45;0.47;;;;;;;;;;6208580;23;20564;-52
2023/03/27 09:28:44;;;;;;;6.22;1.00;;;;;;;;;;6202034;23;20023;-48
2023/03/27 09:31:24;;;;;;;5.30;0.50;;;;;;;;;;6201315;23;20472;-46
2023/03/27 09:33:52;;;;;;;6.03;0.40;;;;;;;;;;6198019;23;20024;-46
2023/03/27 09:36:20;;;;;;;5.20;0.63;;;;;;;;;;6198299;23;20026;-49
2023/03/27 09:38:51;;;;;;;27.33;2.85;;;;;;;;;;6206593;23;20054;-47
2023/03/27 09:41:21;;;;;;;5.07;0.63;;;;;;;;;;6203270;23;20020;-48
2023/03/27 09:43:52;;;;;;;4.30;0.80;;;;;;;;;;6199271;23;20114;-47
2023/03/27 09:46:21;;;;;;;52.65;4.38;;;;;;;;;;6195033;23;20012;-50
2023/03/27 09:48:54;;;;;;;6.45;0.77;;;;;;;;;;6201340;23;20482;-48
2023/03/27 09:51:38;;;;;;;4.93;0.38;;;;;;;;;;6204132;23;20479;-46
2023/03/27 09:54:08;;;;;;;5.88;0.40;;;;;;;;;;6198619;22;20019;-50
2023/03/27 09:56:37;;;;;;;33.33;3.00;;;;;;;;;;6197792;23;20016;-48
2023/03/27 09:59:09;;;;;;;11.23;0.75;;;;;;;;;;6202955;23;20027;-49
2023/03/27 10:01:37;;;;;;;2.80;0.50;;;;;;;;;;6203961;23;20363;-47
2023/03/27 10:04:11;;;;;;;4.78;0.38;;;;;;;;;;6192890;23;20019;-48
2023/03/27 10:06:43;;;;;;;3.97;0.52;;;;;;;;;;6207093;23;20012;-48
2023/03/27 10:09:22;;;;;;;3.90;0.40;;;;;;;;;;6197594;23;20019;-49
2023/03/27 10:11:51;;;;;;;3.58;1.15;;;;;;;;;;6208763;23;20012;-46
2023/03/27 10:14:20;;;;;;;93.35;8.80;;;;;;;;;;6188571;23;20999;-49
2023/03/27 10:16:48;;;;;;;14.55;1.15;;;;;;;;;;6192351;23;20138;-48
2023/03/27 10:19:21;;;;;;;3.78;0.50;;;;;;;;;;6209255;22;20031;-47
2023/03/27 10:21:48;;;;;;;3.60;0.60;;;;;;;;;;6198787;23;20024;-49
2023/03/27 10:24:26;;;;;;;2.92;0.45;;;;;;;;;;6195486;22;20409;-49
2023/03/27 10:26:54;;;;;;;3.95;0.57;;;;;;;;;;6206241;23;20087;-50
2023/03/27 10:29:23;;;;;;;14.48;2.40;;;;;;;;;;6198916;23;20095;-49
2023/03/27 10:31:52;;;;;;;4.10;0.73;;;;;;;;;;6199340;23;20331;-48
2023/03/27 10:34:32;;;;;;;3.90;0.60;;;;;;;;;;6194823;23;20016;-50
2023/03/27 10:37:01;;;;;;;2.78;0.40;;;;;;;;;;6199292;23;20062;-48
2023/03/27 10:39:35;;;;;;;3.63;0.40;;;;;;;;;;6202007;22;20089;-49
2023/03/27 10:42:06;;;;;;;2.60;0.30;;;;;;;;;;6198297;23;20043;-50
2023/03/27 10:44:36;;;;;;;3.88;0.40;;;;;;;;;;6193748;23;20055;-47
2023/03/27 10:47:04;;;;;;;4.43;0.50;;;;;;;;;;6195038;23;20024;-50
2023/03/27 10:49:35;;;;;;;3.22;0.40;;;;;;;;;;6198486;23;20537;-49
2023/03/27 10:52:09;;;;;;;3.25;0.60;;;;;;;;;;6199588;23;20040;-48
2023/03/27 10:54:42;;;;;;;3.53;0.50;;;;;;;;;;6193475;23;20684;-47
2023/03/27 10:57:12;;;;;;;3.25;0.82;;;;;;;;;;6197965;23;20373;-48
2023/03/27 10:59:43;;;;;;;5.60;0.60;;;;;;;;;;6203714;23;20012;-47
2023/03/27 11:02:15;;;;;;;4.18;0.68;;;;;;;;;;6184809;23;20173;-48
2023/03/27 11:04:45;;;;;;;3.67;0.50;;;;;;;;;;6190986;23;20617;-52
2023/03/27 11:07:17;;;;;;;6.05;0.50;;;;;;;;;;6205736;23;20027;-49
2023/03/27 11:09:51;;;;;;;4.60;0.60;;;;;;;;;;6197335;23;20016;-49
2023/03/27 11:12:21;;;;;;;2.63;0.50;;;;;;;;;;6203079;23;20084;-46
2023/03/27 11:15:11;;;;;;;4.97;0.55;;;;;;;;;;6197248;23;20835;-50
2023/03/27 11:17:42;;;;;;;5.85;0.55;;;;;;;;;;6203410;23;20012;-48
2023/03/27 11:20:15;;;;;;;4.72;0.40;;;;;;;;;;6201261;23;20012;-47
2023/03/27 11:22:45;;;;;;;3.08;0.47;;;;;;;;;;6198429;23;20051;-46
2023/03/27 11:25:18;;;;;;;4.27;0.33;;;;;;;;;;6192480;23;20052;-45
2023/03/27 11:27:50;;;;;;;4.63;0.43;;;;;;;;;;6204084;23;20419;-46
2023/03/27 11:30:27;;;;;;;2.83;0.52;;;;;;;;;;6201503;23;20852;-46
2023/03/27 11:33:01;;;;;;;2.90;0.30;;;;;;;;;;6191118;23;20246;-47
2023/03/27 11:35:33;;;;;;;2.67;0.40;;;;;;;;;;6203030;23;20466;-45
2023/03/27 11:38:02;;;;;;;5.10;0.67;;;;;;;;;;6201916;23;20020;-48
2023/03/27 11:40:33;;;;;;;4.72;0.30;;;;;;;;;;6189173;23;20031;-52
2023/03/27 11:43:01;;;;;;;2.15;0.38;;;;;;;;;;6197327;23;20046;-51
2023/03/27 11:45:33;;;;;;;4.40;0.60;;;;;;;;;;6197041;23;20025;-50
2023/03/27 11:48:12;;;;;;;3.20;0.43;;;;;;;;;;6198258;23;20012;-50
2023/03/27 11:50:43;;;;;;;4.47;0.30;;;;;;;;;;6197885;23;20027;-49
2023/03/27 11:53:20;;;;;;;3.88;0.50;;;;;;;;;;6196660;23;20038;-47
2023/03/27 11:56:00;;;;;;;10.63;1.10;;;;;;;;;;6200012;23;20020;-50
2023/03/27 11:58:31;;;;;;;4.60;0.50;;;;;;;;;;6203006;23;20103;-50
2023/03/27 12:01:06;;;;;;;3.05;0.40;;;;;;;;;;6219769;23;20320;-46
2023/03/27 12:03:51;;;;;;;5.50;0.50;;;;;;;;;;6187495;23;20691;-45
2023/03/27 12:06:23;;;;;;;3.10;0.40;;;;;;;;;;6195862;23;20024;-47
2023/03/27 12:09:09;;;;;;;2.85;0.40;;;;;;;;;;6208191;23;20043;-46
2023/03/27 12:11:39;;;;;;;3.63;0.40;;;;;;;;;;6198337;23;20519;-52
2023/03/27 12:14:23;;;;;;;2.78;0.30;;;;;;;;;;6200792;23;20099;-47
2023/03/27 12:17:25;;;;;;;5.83;0.50;;;;;;;;;;6206814;23;20464;-49
2023/03/27 12:20:09;;;;;;;7.10;0.70;;;;;;;;;;6205890;23;20020;-49
2023/03/27 12:22:43;;;;;;;2.45;0.40;;;;;;;;;;6179920;22;20019;-48
2023/03/27 12:25:24;;;;;;;2.42;0.40;;;;;;;;;;6199734;23;20503;-46
2023/03/27 12:28:05;;;;;;;4.40;0.40;;;;;;;;;;6203093;23;20122;-47
2023/03/27 12:30:52;;;;;;;2.40;0.50;;;;;;;;;;6207788;23;20332;-49
2023/03/27 12:33:39;;;;;;;3.88;0.30;;;;;;;;;;6192185;23;20040;-47
2023/03/27 12:36:10;;;;;;;3.53;0.50;;;;;;;;;;6207777;23;20031;-47
2023/03/27 12:38:40;;;;;;;2.97;0.30;;;;;;;;;;6205438;23;20528;-47
2023/03/27 12:41:18;;;;;;;5.50;0.40;;;;;;;;;;6208035;23;20107;-48
2023/03/27 12:43:48;;;;;;;4.10;0.87;;;;;;;;;;6199914;23;20044;-47
2023/03/27 12:46:30;;;;;;;5.90;0.50;;;;;;;;;;6197418;23;20095;-49
2023/03/27 12:49:00;;;;;;;3.70;0.50;;;;;;;;;;6207216;23;20023;-47
2023/03/27 12:51:38;;;;;;;4.38;0.50;;;;;;;;;;6202844;23;20766;-47
2023/03/27 12:54:15;;;;;;;7.43;0.57;;;;;;;;;;6202162;23;20025;-48
2023/03/27 12:56:44;;;;;;;3.53;0.33;;;;;;;;;;6201511;23;20475;-47
2023/03/27 12:59:21;;;;;;;3.10;0.40;;;;;;;;;;6206124;23;20017;-47
2023/03/27 13:02:09;;;;;;;3.53;0.50;;;;;;;;;;6203475;22;20066;-47
2023/03/27 13:04:49;;;;;;;4.07;0.70;;;;;;;;;;6188396;23;20043;-49
2023/03/27 13:07:23;;;;;;;3.38;0.47;;;;;;;;;;6202046;23;20020;-47
2023/03/27 13:09:59;;;;;;;4.20;0.70;;;;;;;;;;6202388;23;20016;-47
2023/03/27 13:12:41;;;;;;;3.80;0.73;;;;;;;;;;6198049;23;20020;-46
2023/03/27 13:15:22;;;;;;;2.95;0.50;;;;;;;;;;6202578;23;20514;-47
2023/03/27 13:17:58;;;;;;;4.03;0.57;;;;;;;;;;6204471;23;20031;-47
2023/03/27 13:20:30;;;;;;;4.65;0.43;;;;;;;;;;6207379;23;20188;-47
2023/03/27 13:23:18;;;;;;;79.93;5.47;;;;;;;;;;6197877;23;20350;-46
2023/03/27 13:26:05;;;;;;;5.15;0.73;;;;;;;;;;6192349;23;20856;-46
2023/03/27 13:28:34;;;;;;;3.10;0.50;;;;;;;;;;6200452;23;20047;-46
2023/03/27 13:31:05;;;;;;;2.50;0.40;;;;;;;;;;6202509;23;20102;-47
2023/03/27 13:33:42;;;;;;;4.38;0.63;;;;;;;;;;6196066;22;20031;-48
2023/03/27 13:36:16;;;;;;;4.83;0.90;;;;;;;;;;6204062;23;20020;-47
2023/03/27 13:38:50;;;;;;;3.22;0.60;;;;;;;;;;6203668;23;20012;-45
2023/03/27 13:41:37;;;;;;;3.38;0.52;;;;;;;;;;6205312;23;20026;-46
2023/03/27 13:44:09;;;;;;;2.80;0.55;;;;;;;;;;6201938;23;20058;-47
2023/03/27 13:46:41;;;;;;;4.28;0.50;;;;;;;;;;6192504;23;20051;-49
2023/03/27 13:49:19;;;;;;;3.63;0.50;;;;;;;;;;6203894;23;20351;-46
2023/03/27 13:52:11;;;;;;;4.80;0.60;;;;;;;;;;6219382;23;20063;-50
2023/03/27 13:54:49;;;;;;;2.58;0.40;;;;;;;;;;6210969;23;20048;-45
2023/03/27 13:57:25;;;;;;;4.55;0.47;;;;;;;;;;6220198;23;20044;-45
2023/03/27 14:00:05;;;;;;;3.67;0.50;;;;;;;;;;6217374;23;20043;-47
2023/03/27 14:02:50;;;;;;;2.47;0.30;;;;;;;;;;6217908;23;20100;-47
2023/03/27 14:05:31;;;;;;;2.80;0.40;;;;;;;;;;6160871;22;20047;-48
2023/03/27 14:08:12;;;;;;;3.40;0.47;;;;;;;;;;6200220;23;20026;-47
2023/03/27 14:10:49;;;;;;;4.32;0.60;;;;;;;;;;6213492;23;20103;-47
2023/03/27 14:13:28;;;;;;;4.18;0.57;;;;;;;;;;6216194;23;20020;-45
2023/03/27 14:16:07;;;;;;;4.40;0.90;;;;;;;;;;6212062;23;20603;-47
2023/03/27 14:18:54;;;;;;;4.68;0.50;;;;;;;;;;6218204;23;20340;-46
2023/03/27 14:21:24;;;;;;;4.15;0.65;;;;;;;;;;6218988;23;20016;-48
2023/03/27 14:24:08;;;;;;;5.93;0.70;;;;;;;;;;6217791;23;20026;-48
2023/03/27 14:26:37;;;;;;;4.78;0.50;;;;;;;;;;6217307;23;20553;-52
2023/03/27 14:29:05;;;;;;;4.00;0.57;;;;;;;;;;6217025;23;20463;-46
2023/03/27 14:31:34;;;;;;;7.82;0.60;;;;;;;;;;6211053;23;20103;-51
2023/03/27 14:34:04;;;;;;;2.58;0.35;;;;;;;;;;6220383;23;20072;-51
2023/03/27 14:36:34;;;;;;;4.65;0.45;;;;;;;;;;6215074;23;20039;-49
2023/03/27 14:39:07;;;;;;;3.80;0.52;;;;;;;;;;6215217;23;20894;-48
2023/03/27 14:41:35;;;;;;;3.87;0.57;;;;;;;;;;6219259;23;20008;-49
2023/03/27 14:44:04;;;;;;;2.97;0.40;;;;;;;;;;6213003;22;20040;-49
2023/03/27 14:46:32;;;;;;;4.05;0.70;;;;;;;;;;6209145;23;20056;-51
2023/03/27 14:49:00;;;;;;;5.25;0.70;;;;;;;;;;6213622;23;20020;-52
2023/03/27 14:51:33;;;;;;;3.97;0.80;;;;;;;;;;6217403;23;20043;-53
2023/03/27 14:54:05;;;;;;;3.50;0.50;;;;;;;;;;6215119;23;20024;-53
2023/03/27 14:56:36;;;;;;;3.38;0.60;;;;;;;;;;6220455;23;20108;-50
2023/03/27 14:59:06;;;;;;;3.78;0.60;;;;;;;;;;6223006;23;20019;-51
2023/03/27 15:01:34;;;;;;;3.08;0.65;;;;;;;;;;6215517;23;20032;-53
2023/03/27 15:04:02;;;;;;;5.13;0.75;;;;;;;;;;6221569;23;20020;-48
2023/03/27 15:06:35;;;;;;;5.13;0.70;;;;;;;;;;6211788;23;20431;-47
2023/03/27 15:09:12;;;;;;;2.80;0.50;;;;;;;;;;6223034;23;20016;-47